Impacts TAF Board
For situational awareness. Not to be used for flight planning purposes.
IDs:

KPHL - Philadelphia Intl, PA, US

Issued at 1738 UTC 24 Sep 2018
Updated at 1814 UTC 24 Sep 2018
Potential Impact None Slight Moderate High
Time<<25/07Z 25/08Z 25/09Z 25/10Z 25/11Z 25/12Z 25/13Z 25/14Z 25/15Z 25/16Z 25/17Z 25/18Z 25/19Z>>
Type PRVL PRVL PRVL PRVL PRVL PRVL PRVL PRVL PRVL PRVL PRVL PRVL PRVL
VIS 3 3 2 2 4 4 4 4 4 4 5 5 5
CIG 15 15 8 8 10 10 10 10 10 10 20 20 20
Cover OVC OVC OVC OVC OVC OVC OVC OVC OVC OVC OVC OVC OVC
FltCat MVFR MVFR IFR IFR MVFR MVFR MVFR MVFR MVFR MVFR MVFR MVFR MVFR
WX -RA BR -RA BR -RA BR -RA BR SHRA SHRA SHRA SHRA SHRA SHRA -SHRA -SHRA -SHRA
WDir 80 80 110 110 120 120 120 120 120 120 170 170 170
WSpd 11 11 9 9 9 9 9 9 9 9 9 9 9
WGst -- -- -- -- -- -- -- -- -- -- -- -- --
Raw TAF
KPHL 241738Z 2418/2524 08012G20KT P6SM OVC040
  FM242300 08011KT P6SM OVC025
  TEMPO 2423/2503 4SM -RA OVC015
  FM250300 08011KT 3SM -RA BR OVC015
  FM250900 11009KT 2SM -RA BR OVC008
  FM251100 12009KT 4SM SHRA OVC010
  FM251700 17009KT 5SM -SHRA OVC020


METAR Board
Radar Display
Forecast Discussion
For situational awareness. Not to be used for flight planning purposes.